sensor_id;sensor_type;location;lat;lon;timestamp;P1;durP1;ratioP1;P2;durP2;ratioP2
21299;SDS011;10809;49.476;11.016;2024-03-22T00:00:53;10.30;;;5.77;;
21299;SDS011;10809;49.476;11.016;2024-03-22T00:03:23;7.27;;;5.40;;
21299;SDS011;10809;49.476;11.016;2024-03-22T00:05:54;8.30;;;6.27;;
21299;SDS011;10809;49.476;11.016;2024-03-22T00:08:24;7.40;;;5.47;;
21299;SDS011;10809;49.476;11.016;2024-03-22T00:10:55;7.27;;;4.83;;
21299;SDS011;10809;49.476;11.016;2024-03-22T00:13:25;6.30;;;5.10;;
21299;SDS011;10809;49.476;11.016;2024-03-22T00:15:55;7.70;;;4.80;;
21299;SDS011;10809;49.476;11.016;2024-03-22T00:18:26;7.33;;;5.50;;
21299;SDS011;10809;49.476;11.016;2024-03-22T00:20:56;6.80;;;4.93;;
21299;SDS011;10809;49.476;11.016;2024-03-22T00:23:27;6.77;;;4.87;;
21299;SDS011;10809;49.476;11.016;2024-03-22T00:25:59;6.33;;;4.97;;
21299;SDS011;10809;49.476;11.016;2024-03-22T00:28:30;5.40;;;4.27;;
21299;SDS011;10809;49.476;11.016;2024-03-22T00:31:00;8.83;;;4.23;;
21299;SDS011;10809;49.476;11.016;2024-03-22T00:33:30;6.40;;;4.67;;
21299;SDS011;10809;49.476;11.016;2024-03-22T00:36:01;6.17;;;4.70;;
21299;SDS011;10809;49.476;11.016;2024-03-22T00:38:35;4.97;;;4.47;;
21299;SDS011;10809;49.476;11.016;2024-03-22T00:41:06;7.03;;;4.80;;
21299;SDS011;10809;49.476;11.016;2024-03-22T00:43:37;7.20;;;5.17;;
21299;SDS011;10809;49.476;11.016;2024-03-22T00:46:07;5.93;;;5.20;;
21299;SDS011;10809;49.476;11.016;2024-03-22T00:48:38;6.90;;;4.40;;
21299;SDS011;10809;49.476;11.016;2024-03-22T00:51:08;7.20;;;4.87;;
21299;SDS011;10809;49.476;11.016;2024-03-22T00:53:39;9.27;;;5.27;;
21299;SDS011;10809;49.476;11.016;2024-03-22T00:56:09;6.07;;;4.93;;
21299;SDS011;10809;49.476;11.016;2024-03-22T00:58:40;6.57;;;4.93;;
21299;SDS011;10809;49.476;11.016;2024-03-22T01:01:10;6.90;;;5.33;;
21299;SDS011;10809;49.476;11.016;2024-03-22T01:03:41;6.80;;;5.10;;
21299;SDS011;10809;49.476;11.016;2024-03-22T01:06:11;6.23;;;5.23;;
21299;SDS011;10809;49.476;11.016;2024-03-22T01:08:41;7.00;;;5.23;;
21299;SDS011;10809;49.476;11.016;2024-03-22T01:11:12;5.53;;;4.73;;
21299;SDS011;10809;49.476;11.016;2024-03-22T01:13:42;6.87;;;5.10;;
21299;SDS011;10809;49.476;11.016;2024-03-22T01:16:13;6.63;;;5.13;;
21299;SDS011;10809;49.476;11.016;2024-03-22T01:18:43;6.93;;;5.43;;
21299;SDS011;10809;49.476;11.016;2024-03-22T01:21:13;5.57;;;4.53;;
21299;SDS011;10809;49.476;11.016;2024-03-22T01:23:44;6.60;;;5.30;;
21299;SDS011;10809;49.476;11.016;2024-03-22T01:26:17;6.90;;;4.87;;
21299;SDS011;10809;49.476;11.016;2024-03-22T01:28:48;8.10;;;4.97;;
21299;SDS011;10809;49.476;11.016;2024-03-22T01:31:18;8.23;;;5.30;;
21299;SDS011;10809;49.476;11.016;2024-03-22T01:33:49;7.83;;;5.27;;
21299;SDS011;10809;49.476;11.016;2024-03-22T01:36:19;6.30;;;5.00;;
21299;SDS011;10809;49.476;11.016;2024-03-22T01:38:50;6.23;;;5.00;;
21299;SDS011;10809;49.476;11.016;2024-03-22T01:41:20;5.77;;;4.80;;
21299;SDS011;10809;49.476;11.016;2024-03-22T01:43:51;8.30;;;4.90;;
21299;SDS011;10809;49.476;11.016;2024-03-22T01:46:21;5.47;;;4.63;;
21299;SDS011;10809;49.476;11.016;2024-03-22T01:48:52;6.33;;;4.50;;
21299;SDS011;10809;49.476;11.016;2024-03-22T01:51:22;5.77;;;4.83;;
21299;SDS011;10809;49.476;11.016;2024-03-22T01:53:53;6.20;;;5.03;;
21299;SDS011;10809;49.476;11.016;2024-03-22T01:56:24;6.63;;;4.93;;
21299;SDS011;10809;49.476;11.016;2024-03-22T01:58:55;5.73;;;4.80;;
21299;SDS011;10809;49.476;11.016;2024-03-22T02:01:26;7.90;;;5.73;;
21299;SDS011;10809;49.476;11.016;2024-03-22T02:03:57;6.77;;;4.53;;
21299;SDS011;10809;49.476;11.016;2024-03-22T02:06:30;5.17;;;4.53;;
21299;SDS011;10809;49.476;11.016;2024-03-22T02:09:01;6.57;;;3.97;;
21299;SDS011;10809;49.476;11.016;2024-03-22T02:11:31;7.23;;;4.70;;
21299;SDS011;10809;49.476;11.016;2024-03-22T02:14:02;7.30;;;5.20;;
21299;SDS011;10809;49.476;11.016;2024-03-22T02:16:32;7.90;;;4.93;;
21299;SDS011;10809;49.476;11.016;2024-03-22T02:19:03;6.27;;;5.33;;
21299;SDS011;10809;49.476;11.016;2024-03-22T02:21:33;6.13;;;4.90;;
21299;SDS011;10809;49.476;11.016;2024-03-22T02:24:04;5.70;;;4.53;;
21299;SDS011;10809;49.476;11.016;2024-03-22T02:26:34;7.90;;;5.23;;
21299;SDS011;10809;49.476;11.016;2024-03-22T02:29:05;6.90;;;4.73;;
21299;SDS011;10809;49.476;11.016;2024-03-22T02:31:35;6.23;;;4.90;;
21299;SDS011;10809;49.476;11.016;2024-03-22T02:34:06;5.90;;;4.57;;
21299;SDS011;10809;49.476;11.016;2024-03-22T02:36:36;7.13;;;5.07;;
21299;SDS011;10809;49.476;11.016;2024-03-22T02:39:07;6.67;;;4.87;;
21299;SDS011;10809;49.476;11.016;2024-03-22T02:41:37;7.40;;;4.77;;
21299;SDS011;10809;49.476;11.016;2024-03-22T02:44:10;6.00;;;4.67;;
21299;SDS011;10809;49.476;11.016;2024-03-22T02:46:41;6.87;;;4.70;;
21299;SDS011;10809;49.476;11.016;2024-03-22T02:49:12;5.73;;;4.00;;
21299;SDS011;10809;49.476;11.016;2024-03-22T02:51:42;5.07;;;4.30;;
21299;SDS011;10809;49.476;11.016;2024-03-22T02:54:13;6.00;;;4.63;;
21299;SDS011;10809;49.476;11.016;2024-03-22T02:56:50;7.17;;;4.50;;
21299;SDS011;10809;49.476;11.016;2024-03-22T02:59:20;5.10;;;4.37;;
21299;SDS011;10809;49.476;11.016;2024-03-22T03:01:51;6.43;;;4.40;;
21299;SDS011;10809;49.476;11.016;2024-03-22T03:04:21;5.43;;;4.17;;
21299;SDS011;10809;49.476;11.016;2024-03-22T03:06:52;4.43;;;4.00;;
21299;SDS011;10809;49.476;11.016;2024-03-22T03:09:22;5.13;;;4.30;;
21299;SDS011;10809;49.476;11.016;2024-03-22T03:11:53;5.57;;;4.30;;
21299;SDS011;10809;49.476;11.016;2024-03-22T03:14:23;5.83;;;4.10;;
21299;SDS011;10809;49.476;11.016;2024-03-22T03:16:53;5.77;;;4.13;;
21299;SDS011;10809;49.476;11.016;2024-03-22T03:19:24;6.53;;;4.43;;
21299;SDS011;10809;49.476;11.016;2024-03-22T03:21:54;5.47;;;4.30;;
21299;SDS011;10809;49.476;11.016;2024-03-22T03:24:25;5.13;;;4.23;;
21299;SDS011;10809;49.476;11.016;2024-03-22T03:26:55;7.03;;;4.53;;
21299;SDS011;10809;49.476;11.016;2024-03-22T03:29:26;7.40;;;5.30;;
21299;SDS011;10809;49.476;11.016;2024-03-22T03:31:56;5.80;;;4.27;;
21299;SDS011;10809;49.476;11.016;2024-03-22T03:34:26;5.70;;;4.43;;
21299;SDS011;10809;49.476;11.016;2024-03-22T03:37:00;5.60;;;4.00;;
21299;SDS011;10809;49.476;11.016;2024-03-22T03:39:31;5.93;;;4.20;;
21299;SDS011;10809;49.476;11.016;2024-03-22T03:42:01;6.17;;;4.53;;
21299;SDS011;10809;49.476;11.016;2024-03-22T03:44:32;7.60;;;4.57;;
21299;SDS011;10809;49.476;11.016;2024-03-22T03:47:02;6.80;;;4.60;;
21299;SDS011;10809;49.476;11.016;2024-03-22T03:49:33;6.50;;;5.30;;
21299;SDS011;10809;49.476;11.016;2024-03-22T03:52:04;8.73;;;5.67;;
21299;SDS011;10809;49.476;11.016;2024-03-22T03:54:34;7.07;;;5.13;;
21299;SDS011;10809;49.476;11.016;2024-03-22T03:57:05;5.70;;;4.60;;
21299;SDS011;10809;49.476;11.016;2024-03-22T03:59:38;7.57;;;4.40;;
21299;SDS011;10809;49.476;11.016;2024-03-22T04:02:09;5.93;;;5.00;;
21299;SDS011;10809;49.476;11.016;2024-03-22T04:04:51;5.40;;;4.70;;
21299;SDS011;10809;49.476;11.016;2024-03-22T04:07:23;5.70;;;4.43;;
21299;SDS011;10809;49.476;11.016;2024-03-22T04:09:53;7.10;;;5.33;;
21299;SDS011;10809;49.476;11.016;2024-03-22T04:12:23;10.20;;;7.00;;
21299;SDS011;10809;49.476;11.016;2024-03-22T04:14:54;15.37;;;11.40;;
21299;SDS011;10809;49.476;11.016;2024-03-22T04:17:24;14.93;;;9.80;;
21299;SDS011;10809;49.476;11.016;2024-03-22T04:19:55;11.97;;;8.13;;
21299;SDS011;10809;49.476;11.016;2024-03-22T04:22:25;10.07;;;6.80;;
21299;SDS011;10809;49.476;11.016;2024-03-22T04:24:56;8.33;;;6.03;;
21299;SDS011;10809;49.476;11.016;2024-03-22T04:27:26;8.77;;;6.27;;
21299;SDS011;10809;49.476;11.016;2024-03-22T04:29:56;10.03;;;6.40;;
21299;SDS011;10809;49.476;11.016;2024-03-22T04:32:27;9.67;;;6.00;;
21299;SDS011;10809;49.476;11.016;2024-03-22T04:34:57;9.07;;;5.37;;
21299;SDS011;10809;49.476;11.016;2024-03-22T04:37:28;8.43;;;5.40;;
21299;SDS011;10809;49.476;11.016;2024-03-22T04:39:59;7.13;;;5.37;;
21299;SDS011;10809;49.476;11.016;2024-03-22T04:42:29;7.33;;;5.30;;
21299;SDS011;10809;49.476;11.016;2024-03-22T04:45:00;5.80;;;4.73;;
21299;SDS011;10809;49.476;11.016;2024-03-22T04:47:30;7.37;;;4.93;;
21299;SDS011;10809;49.476;11.016;2024-03-22T04:50:01;6.67;;;5.40;;
21299;SDS011;10809;49.476;11.016;2024-03-22T04:52:31;7.83;;;5.03;;
21299;SDS011;10809;49.476;11.016;2024-03-22T04:55:02;5.50;;;4.33;;
21299;SDS011;10809;49.476;11.016;2024-03-22T04:57:32;7.10;;;5.57;;
21299;SDS011;10809;49.476;11.016;2024-03-22T05:00:03;5.43;;;4.63;;
21299;SDS011;10809;49.476;11.016;2024-03-22T05:02:34;6.67;;;4.70;;
21299;SDS011;10809;49.476;11.016;2024-03-22T05:05:04;6.87;;;4.60;;
21299;SDS011;10809;49.476;11.016;2024-03-22T05:07:35;6.33;;;4.70;;
21299;SDS011;10809;49.476;11.016;2024-03-22T05:10:06;5.43;;;4.67;;
21299;SDS011;10809;49.476;11.016;2024-03-22T05:12:36;6.43;;;4.30;;
21299;SDS011;10809;49.476;11.016;2024-03-22T05:15:07;6.13;;;4.70;;
21299;SDS011;10809;49.476;11.016;2024-03-22T05:17:37;5.60;;;4.53;;
21299;SDS011;10809;49.476;11.016;2024-03-22T05:20:09;5.03;;;4.53;;
21299;SDS011;10809;49.476;11.016;2024-03-22T05:22:41;5.50;;;4.23;;
21299;SDS011;10809;49.476;11.016;2024-03-22T05:25:11;6.53;;;4.90;;
21299;SDS011;10809;49.476;11.016;2024-03-22T05:27:42;6.10;;;4.73;;
21299;SDS011;10809;49.476;11.016;2024-03-22T05:30:14;7.50;;;4.80;;
21299;SDS011;10809;49.476;11.016;2024-03-22T05:32:44;6.23;;;5.20;;
21299;SDS011;10809;49.476;11.016;2024-03-22T05:35:14;7.67;;;4.83;;
21299;SDS011;10809;49.476;11.016;2024-03-22T05:37:45;7.23;;;5.23;;
21299;SDS011;10809;49.476;11.016;2024-03-22T05:40:16;7.60;;;5.47;;
21299;SDS011;10809;49.476;11.016;2024-03-22T05:42:46;6.07;;;5.10;;
21299;SDS011;10809;49.476;11.016;2024-03-22T05:45:17;7.13;;;5.03;;
21299;SDS011;10809;49.476;11.016;2024-03-22T05:47:47;7.63;;;4.97;;
21299;SDS011;10809;49.476;11.016;2024-03-22T05:50:18;8.73;;;4.90;;
21299;SDS011;10809;49.476;11.016;2024-03-22T05:52:53;7.10;;;4.90;;
21299;SDS011;10809;49.476;11.016;2024-03-22T05:55:24;5.70;;;4.50;;
21299;SDS011;10809;49.476;11.016;2024-03-22T05:57:57;7.10;;;5.10;;
21299;SDS011;10809;49.476;11.016;2024-03-22T06:00:27;7.03;;;4.87;;
21299;SDS011;10809;49.476;11.016;2024-03-22T06:02:58;5.80;;;4.60;;
21299;SDS011;10809;49.476;11.016;2024-03-22T06:05:28;6.07;;;5.33;;
21299;SDS011;10809;49.476;11.016;2024-03-22T06:07:59;6.17;;;4.50;;
21299;SDS011;10809;49.476;11.016;2024-03-22T06:10:29;8.37;;;5.30;;
21299;SDS011;10809;49.476;11.016;2024-03-22T06:13:00;7.63;;;5.13;;
21299;SDS011;10809;49.476;11.016;2024-03-22T06:15:30;6.33;;;4.70;;
21299;SDS011;10809;49.476;11.016;2024-03-22T06:18:01;10.00;;;5.53;;
21299;SDS011;10809;49.476;11.016;2024-03-22T06:20:31;8.07;;;5.80;;
21299;SDS011;10809;49.476;11.016;2024-03-22T06:23:02;7.07;;;4.90;;
21299;SDS011;10809;49.476;11.016;2024-03-22T06:25:38;7.67;;;5.43;;
21299;SDS011;10809;49.476;11.016;2024-03-22T06:28:09;7.30;;;5.83;;
21299;SDS011;10809;49.476;11.016;2024-03-22T06:30:39;6.73;;;5.23;;
21299;SDS011;10809;49.476;11.016;2024-03-22T06:33:10;8.03;;;5.03;;
21299;SDS011;10809;49.476;11.016;2024-03-22T06:35:40;6.97;;;5.20;;
21299;SDS011;10809;49.476;11.016;2024-03-22T06:38:11;7.63;;;5.40;;
21299;SDS011;10809;49.476;11.016;2024-03-22T06:40:42;6.90;;;5.13;;
21299;SDS011;10809;49.476;11.016;2024-03-22T06:43:12;9.20;;;5.30;;
21299;SDS011;10809;49.476;11.016;2024-03-22T06:45:42;9.20;;;5.63;;
21299;SDS011;10809;49.476;11.016;2024-03-22T06:48:13;8.33;;;5.53;;
21299;SDS011;10809;49.476;11.016;2024-03-22T06:50:57;6.23;;;5.00;;
21299;SDS011;10809;49.476;11.016;2024-03-22T06:53:27;7.77;;;5.00;;
21299;SDS011;10809;49.476;11.016;2024-03-22T06:55:58;6.00;;;5.03;;
21299;SDS011;10809;49.476;11.016;2024-03-22T06:58:28;7.87;;;5.03;;
21299;SDS011;10809;49.476;11.016;2024-03-22T07:00:58;9.23;;;5.13;;
21299;SDS011;10809;49.476;11.016;2024-03-22T07:03:29;6.93;;;5.40;;
21299;SDS011;10809;49.476;11.016;2024-03-22T07:06:00;7.70;;;5.57;;
21299;SDS011;10809;49.476;11.016;2024-03-22T07:08:34;9.73;;;5.27;;
21299;SDS011;10809;49.476;11.016;2024-03-22T07:11:05;6.13;;;4.57;;
21299;SDS011;10809;49.476;11.016;2024-03-22T07:13:36;7.80;;;5.13;;
21299;SDS011;10809;49.476;11.016;2024-03-22T07:16:06;6.77;;;4.87;;
21299;SDS011;10809;49.476;11.016;2024-03-22T07:18:37;8.37;;;4.77;;
21299;SDS011;10809;49.476;11.016;2024-03-22T07:21:10;8.17;;;5.67;;
21299;SDS011;10809;49.476;11.016;2024-03-22T07:23:41;7.33;;;5.20;;
21299;SDS011;10809;49.476;11.016;2024-03-22T07:26:11;8.70;;;6.70;;
21299;SDS011;10809;49.476;11.016;2024-03-22T07:28:42;7.47;;;5.30;;
21299;SDS011;10809;49.476;11.016;2024-03-22T07:31:12;7.10;;;5.13;;
21299;SDS011;10809;49.476;11.016;2024-03-22T07:33:42;6.73;;;4.73;;
21299;SDS011;10809;49.476;11.016;2024-03-22T07:36:15;6.37;;;5.07;;
21299;SDS011;10809;49.476;11.016;2024-03-22T07:38:47;6.83;;;5.03;;
21299;SDS011;10809;49.476;11.016;2024-03-22T07:41:19;7.17;;;5.23;;
21299;SDS011;10809;49.476;11.016;2024-03-22T07:43:49;6.23;;;4.67;;
21299;SDS011;10809;49.476;11.016;2024-03-22T07:46:20;6.37;;;5.00;;
21299;SDS011;10809;49.476;11.016;2024-03-22T07:48:50;6.57;;;4.80;;
21299;SDS011;10809;49.476;11.016;2024-03-22T07:51:21;6.03;;;4.57;;
21299;SDS011;10809;49.476;11.016;2024-03-22T07:53:51;6.43;;;4.60;;
21299;SDS011;10809;49.476;11.016;2024-03-22T07:56:22;7.00;;;4.87;;
21299;SDS011;10809;49.476;11.016;2024-03-22T07:58:52;5.00;;;3.77;;
21299;SDS011;10809;49.476;11.016;2024-03-22T08:01:23;6.60;;;5.10;;
21299;SDS011;10809;49.476;11.016;2024-03-22T08:03:53;7.40;;;4.97;;
21299;SDS011;10809;49.476;11.016;2024-03-22T08:06:27;6.70;;;5.07;;
21299;SDS011;10809;49.476;11.016;2024-03-22T08:08:57;4.50;;;4.03;;
21299;SDS011;10809;49.476;11.016;2024-03-22T08:11:28;7.63;;;5.20;;
21299;SDS011;10809;49.476;11.016;2024-03-22T08:13:58;6.53;;;4.90;;
21299;SDS011;10809;49.476;11.016;2024-03-22T08:16:33;7.77;;;5.20;;
21299;SDS011;10809;49.476;11.016;2024-03-22T08:19:04;6.70;;;5.23;;
21299;SDS011;10809;49.476;11.016;2024-03-22T08:21:34;6.30;;;5.27;;
21299;SDS011;10809;49.476;11.016;2024-03-22T08:24:05;7.03;;;4.97;;
21299;SDS011;10809;49.476;11.016;2024-03-22T08:26:35;5.53;;;4.17;;
21299;SDS011;10809;49.476;11.016;2024-03-22T08:29:08;10.17;;;5.13;;
21299;SDS011;10809;49.476;11.016;2024-03-22T08:31:39;5.90;;;4.67;;
21299;SDS011;10809;49.476;11.016;2024-03-22T08:34:10;7.00;;;4.83;;
21299;SDS011;10809;49.476;11.016;2024-03-22T08:36:41;8.10;;;4.93;;
21299;SDS011;10809;49.476;11.016;2024-03-22T08:39:11;6.87;;;4.43;;
21299;SDS011;10809;49.476;11.016;2024-03-22T08:41:41;5.97;;;4.53;;
21299;SDS011;10809;49.476;11.016;2024-03-22T08:44:12;7.10;;;5.27;;
21299;SDS011;10809;49.476;11.016;2024-03-22T08:46:42;6.70;;;4.97;;
21299;SDS011;10809;49.476;11.016;2024-03-22T08:49:12;8.87;;;5.53;;
21299;SDS011;10809;49.476;11.016;2024-03-22T08:51:43;5.73;;;4.60;;
21299;SDS011;10809;49.476;11.016;2024-03-22T08:54:13;6.93;;;4.80;;
21299;SDS011;10809;49.476;11.016;2024-03-22T08:56:44;5.73;;;4.73;;
21299;SDS011;10809;49.476;11.016;2024-03-22T08:59:15;5.97;;;4.77;;
21299;SDS011;10809;49.476;11.016;2024-03-22T09:01:45;7.33;;;4.90;;
21299;SDS011;10809;49.476;11.016;2024-03-22T09:04:19;5.93;;;5.33;;
21299;SDS011;10809;49.476;11.016;2024-03-22T09:06:50;6.03;;;5.07;;
21299;SDS011;10809;49.476;11.016;2024-03-22T09:09:20;7.97;;;6.17;;
21299;SDS011;10809;49.476;11.016;2024-03-22T09:11:51;6.73;;;5.03;;
21299;SDS011;10809;49.476;11.016;2024-03-22T09:14:21;6.97;;;5.07;;
21299;SDS011;10809;49.476;11.016;2024-03-22T09:16:52;8.70;;;5.60;;
21299;SDS011;10809;49.476;11.016;2024-03-22T09:19:22;6.93;;;5.40;;
21299;SDS011;10809;49.476;11.016;2024-03-22T09:21:53;8.45;;;5.40;;
21299;SDS011;10809;49.476;11.016;2024-03-22T09:24:23;7.78;;;5.53;;
21299;SDS011;10809;49.476;11.016;2024-03-22T09:26:54;6.22;;;5.57;;
21299;SDS011;10809;49.476;11.016;2024-03-22T09:29:25;8.93;;;6.10;;
21299;SDS011;10809;49.476;11.016;2024-03-22T09:31:55;10.50;;;6.78;;
21299;SDS011;10809;49.476;11.016;2024-03-22T09:34:29;7.18;;;5.30;;
21299;SDS011;10809;49.476;11.016;2024-03-22T09:37:00;7.10;;;5.65;;
21299;SDS011;10809;49.476;11.016;2024-03-22T09:39:30;8.50;;;6.00;;
21299;SDS011;10809;49.476;11.016;2024-03-22T09:42:02;6.13;;;5.07;;
21299;SDS011;10809;49.476;11.016;2024-03-22T09:44:36;5.97;;;5.00;;
21299;SDS011;10809;49.476;11.016;2024-03-22T09:47:09;5.53;;;4.63;;
21299;SDS011;10809;49.476;11.016;2024-03-22T09:49:41;5.97;;;5.18;;
21299;SDS011;10809;49.476;11.016;2024-03-22T09:52:19;6.82;;;5.40;;
21299;SDS011;10809;49.476;11.016;2024-03-22T09:54:50;6.68;;;5.65;;
21299;SDS011;10809;49.476;11.016;2024-03-22T09:57:22;6.13;;;5.32;;
21299;SDS011;10809;49.476;11.016;2024-03-22T09:59:56;7.60;;;5.70;;
21299;SDS011;10809;49.476;11.016;2024-03-22T10:02:27;7.32;;;5.57;;
21299;SDS011;10809;49.476;11.016;2024-03-22T10:04:57;6.15;;;4.95;;
21299;SDS011;10809;49.476;11.016;2024-03-22T10:07:28;6.03;;;4.85;;
21299;SDS011;10809;49.476;11.016;2024-03-22T10:09:58;6.95;;;4.85;;
21299;SDS011;10809;49.476;11.016;2024-03-22T10:12:29;6.13;;;5.03;;
21299;SDS011;10809;49.476;11.016;2024-03-22T10:14:59;5.32;;;4.80;;
21299;SDS011;10809;49.476;11.016;2024-03-22T10:17:30;5.93;;;5.15;;
21299;SDS011;10809;49.476;11.016;2024-03-22T10:20:01;6.28;;;4.50;;
21299;SDS011;10809;49.476;11.016;2024-03-22T10:22:32;5.97;;;4.05;;
21299;SDS011;10809;49.476;11.016;2024-03-22T10:25:06;4.22;;;3.83;;
21299;SDS011;10809;49.476;11.016;2024-03-22T10:27:40;5.55;;;4.03;;
21299;SDS011;10809;49.476;11.016;2024-03-22T10:30:11;4.57;;;3.85;;
21299;SDS011;10809;49.476;11.016;2024-03-22T10:32:45;4.68;;;3.65;;
21299;SDS011;10809;49.476;11.016;2024-03-22T10:35:16;4.20;;;3.63;;
21299;SDS011;10809;49.476;11.016;2024-03-22T10:37:46;5.28;;;4.43;;
21299;SDS011;10809;49.476;11.016;2024-03-22T10:40:18;3.75;;;3.45;;
21299;SDS011;10809;49.476;11.016;2024-03-22T10:42:50;5.57;;;4.18;;
21299;SDS011;10809;49.476;11.016;2024-03-22T10:45:21;4.68;;;4.10;;
21299;SDS011;10809;49.476;11.016;2024-03-22T10:47:55;6.47;;;4.20;;
21299;SDS011;10809;49.476;11.016;2024-03-22T10:50:25;4.95;;;3.83;;
21299;SDS011;10809;49.476;11.016;2024-03-22T10:52:58;4.10;;;3.63;;
21299;SDS011;10809;49.476;11.016;2024-03-22T10:55:35;3.92;;;3.28;;
21299;SDS011;10809;49.476;11.016;2024-03-22T10:58:15;3.50;;;2.90;;
21299;SDS011;10809;49.476;11.016;2024-03-22T11:00:46;3.60;;;3.25;;
21299;SDS011;10809;49.476;11.016;2024-03-22T11:03:21;3.95;;;3.28;;
21299;SDS011;10809;49.476;11.016;2024-03-22T11:05:53;3.38;;;2.92;;
21299;SDS011;10809;49.476;11.016;2024-03-22T11:08:29;3.53;;;2.75;;
21299;SDS011;10809;49.476;11.016;2024-03-22T11:11:09;4.13;;;2.63;;
21299;SDS011;10809;49.476;11.016;2024-03-22T11:13:40;4.63;;;3.55;;
21299;SDS011;10809;49.476;11.016;2024-03-22T11:16:11;3.10;;;2.80;;
21299;SDS011;10809;49.476;11.016;2024-03-22T11:18:42;4.93;;;3.40;;
21299;SDS011;10809;49.476;11.016;2024-03-22T11:21:12;3.35;;;3.05;;
21299;SDS011;10809;49.476;11.016;2024-03-22T11:23:46;2.95;;;2.70;;
21299;SDS011;10809;49.476;11.016;2024-03-22T11:26:16;3.38;;;2.90;;
21299;SDS011;10809;49.476;11.016;2024-03-22T11:28:48;3.33;;;2.97;;
21299;SDS011;10809;49.476;11.016;2024-03-22T11:31:20;3.00;;;2.67;;
21299;SDS011;10809;49.476;11.016;2024-03-22T11:33:55;2.58;;;2.38;;
21299;SDS011;10809;49.476;11.016;2024-03-22T11:36:26;2.50;;;2.30;;
21299;SDS011;10809;49.476;11.016;2024-03-22T11:38:57;3.08;;;2.72;;
21299;SDS011;10809;49.476;11.016;2024-03-22T11:41:28;3.13;;;2.30;;
21299;SDS011;10809;49.476;11.016;2024-03-22T11:44:00;2.58;;;2.13;;
21299;SDS011;10809;49.476;11.016;2024-03-22T11:46:31;2.88;;;2.40;;
21299;SDS011;10809;49.476;11.016;2024-03-22T11:49:02;2.55;;;2.33;;
21299;SDS011;10809;49.476;11.016;2024-03-22T11:51:32;2.33;;;2.13;;
21299;SDS011;10809;49.476;11.016;2024-03-22T11:54:03;2.63;;;2.42;;
21299;SDS011;10809;49.476;11.016;2024-03-22T11:56:34;2.67;;;2.47;;
21299;SDS011;10809;49.476;11.016;2024-03-22T11:59:06;2.45;;;2.25;;
21299;SDS011;10809;49.476;11.016;2024-03-22T12:01:36;2.22;;;2.13;;
21299;SDS011;10809;49.476;11.016;2024-03-22T12:04:07;3.05;;;2.42;;
21299;SDS011;10809;49.476;11.016;2024-03-22T12:06:38;2.45;;;2.25;;
21299;SDS011;10809;49.476;11.016;2024-03-22T12:09:11;2.97;;;2.50;;
21299;SDS011;10809;49.476;11.016;2024-03-22T12:11:43;3.35;;;3.00;;
21299;SDS011;10809;49.476;11.016;2024-03-22T12:14:14;3.08;;;2.63;;
21299;SDS011;10809;49.476;11.016;2024-03-22T12:16:44;3.45;;;2.60;;
21299;SDS011;10809;49.476;11.016;2024-03-22T12:19:15;3.33;;;3.03;;
21299;SDS011;10809;49.476;11.016;2024-03-22T12:21:45;3.30;;;3.00;;
21299;SDS011;10809;49.476;11.016;2024-03-22T12:24:15;4.18;;;2.92;;
21299;SDS011;10809;49.476;11.016;2024-03-22T12:26:46;3.30;;;2.88;;
21299;SDS011;10809;49.476;11.016;2024-03-22T12:29:16;3.03;;;2.72;;
21299;SDS011;10809;49.476;11.016;2024-03-22T12:31:53;3.60;;;2.58;;
21299;SDS011;10809;49.476;11.016;2024-03-22T12:34:24;2.42;;;2.22;;
21299;SDS011;10809;49.476;11.016;2024-03-22T12:36:55;2.75;;;2.55;;
21299;SDS011;10809;49.476;11.016;2024-03-22T12:39:25;2.70;;;2.50;;
21299;SDS011;10809;49.476;11.016;2024-03-22T12:41:56;2.60;;;2.28;;
21299;SDS011;10809;49.476;11.016;2024-03-22T12:44:29;6.13;;;4.65;;
21299;SDS011;10809;49.476;11.016;2024-03-22T12:47:00;3.25;;;2.95;;
21299;SDS011;10809;49.476;11.016;2024-03-22T12:49:30;2.00;;;1.80;;
21299;SDS011;10809;49.476;11.016;2024-03-22T12:52:02;1.75;;;1.65;;
21299;SDS011;10809;49.476;11.016;2024-03-22T12:54:32;4.18;;;2.00;;
21299;SDS011;10809;49.476;11.016;2024-03-22T12:57:03;1.80;;;1.70;;
21299;SDS011;10809;49.476;11.016;2024-03-22T12:59:33;1.52;;;1.33;;
21299;SDS011;10809;49.476;11.016;2024-03-22T13:02:04;2.00;;;1.80;;
21299;SDS011;10809;49.476;11.016;2024-03-22T13:04:35;1.83;;;1.65;;
21299;SDS011;10809;49.476;11.016;2024-03-22T13:07:05;1.60;;;1.35;;
21299;SDS011;10809;49.476;11.016;2024-03-22T13:09:36;1.60;;;1.50;;
21299;SDS011;10809;49.476;11.016;2024-03-22T13:12:06;1.60;;;1.50;;
21299;SDS011;10809;49.476;11.016;2024-03-22T13:14:37;1.70;;;1.60;;
21299;SDS011;10809;49.476;11.016;2024-03-22T13:17:08;2.40;;;2.20;;
21299;SDS011;10809;49.476;11.016;2024-03-22T13:19:39;2.00;;;1.90;;
21299;SDS011;10809;49.476;11.016;2024-03-22T13:22:09;2.08;;;1.92;;
21299;SDS011;10809;49.476;11.016;2024-03-22T13:24:40;3.00;;;2.70;;
21299;SDS011;10809;49.476;11.016;2024-03-22T13:27:10;2.88;;;2.58;;
21299;SDS011;10809;49.476;11.016;2024-03-22T13:29:42;2.55;;;2.35;;
21299;SDS011;10809;49.476;11.016;2024-03-22T13:32:13;4.93;;;2.15;;
21299;SDS011;10809;49.476;11.016;2024-03-22T13:34:43;1.85;;;1.60;;
21299;SDS011;10809;49.476;11.016;2024-03-22T13:37:14;2.08;;;1.77;;
21299;SDS011;10809;49.476;11.016;2024-03-22T13:39:48;2.60;;;2.00;;
21299;SDS011;10809;49.476;11.016;2024-03-22T13:42:19;1.77;;;1.63;;
21299;SDS011;10809;49.476;11.016;2024-03-22T13:44:50;1.83;;;1.73;;
21299;SDS011;10809;49.476;11.016;2024-03-22T13:47:20;1.67;;;1.58;;
21299;SDS011;10809;49.476;11.016;2024-03-22T13:49:50;1.58;;;1.48;;
21299;SDS011;10809;49.476;11.016;2024-03-22T13:52:21;2.13;;;1.85;;
21299;SDS011;10809;49.476;11.016;2024-03-22T13:54:52;1.55;;;1.45;;
21299;SDS011;10809;49.476;11.016;2024-03-22T13:57:23;1.90;;;1.60;;
21299;SDS011;10809;49.476;11.016;2024-03-22T13:59:55;1.52;;;1.42;;
21299;SDS011;10809;49.476;11.016;2024-03-22T14:02:25;2.13;;;1.67;;
21299;SDS011;10809;49.476;11.016;2024-03-22T14:05:02;1.65;;;1.55;;
21299;SDS011;10809;49.476;11.016;2024-03-22T14:07:32;1.75;;;1.13;;
21299;SDS011;10809;49.476;11.016;2024-03-22T14:10:03;1.70;;;1.30;;
21299;SDS011;10809;49.476;11.016;2024-03-22T14:12:34;1.02;;;1.02;;
21299;SDS011;10809;49.476;11.016;2024-03-22T14:15:04;1.50;;;1.40;;
21299;SDS011;10809;49.476;11.016;2024-03-22T14:17:36;2.15;;;1.48;;
21299;SDS011;10809;49.476;11.016;2024-03-22T14:20:07;1.42;;;1.20;;
21299;SDS011;10809;49.476;11.016;2024-03-22T14:22:41;1.20;;;0.93;;
21299;SDS011;10809;49.476;11.016;2024-03-22T14:25:12;1.15;;;1.05;;
21299;SDS011;10809;49.476;11.016;2024-03-22T14:27:43;1.63;;;1.30;;
21299;SDS011;10809;49.476;11.016;2024-03-22T14:30:15;1.40;;;1.20;;
21299;SDS011;10809;49.476;11.016;2024-03-22T14:32:46;4.32;;;1.10;;
21299;SDS011;10809;49.476;11.016;2024-03-22T14:35:16;1.27;;;1.17;;
21299;SDS011;10809;49.476;11.016;2024-03-22T14:37:47;2.75;;;1.30;;
21299;SDS011;10809;49.476;11.016;2024-03-22T14:40:17;1.35;;;1.25;;
21299;SDS011;10809;49.476;11.016;2024-03-22T14:42:48;3.85;;;2.65;;
21299;SDS011;10809;49.476;11.016;2024-03-22T14:45:19;3.10;;;2.80;;
21299;SDS011;10809;49.476;11.016;2024-03-22T14:47:51;4.18;;;3.72;;
21299;SDS011;10809;49.476;11.016;2024-03-22T14:50:21;2.65;;;2.30;;
21299;SDS011;10809;49.476;11.016;2024-03-22T14:52:53;1.92;;;1.67;;
21299;SDS011;10809;49.476;11.016;2024-03-22T14:55:23;1.73;;;1.55;;